Time;durP1;ratioP1;P1;durP2;ratioP2;P2;SDS_P1;SDS_P2;PMS_P1;PMS_P2;Temp;Humidity;BMP_temperature;BMP_pressure;BME280_temperature;BME280_humidity;BME280_pressure;Samples;Min_cycle;Max_cycle;Signal;HPM_P1;HPM_P2
2022/06/08 00:02:26;;;;;;;6.53;4.37;;;13.80;1.00;;;;;;5001257;28;20446;-49
2022/06/08 00:04:52;;;;;;;10.37;4.30;;;13.80;1.00;;;;;;4999597;28;20801;-49
2022/06/08 00:07:17;;;;;;;5.83;4.63;;;13.80;1.00;;;;;;4998368;28;20454;-50
2022/06/08 00:09:43;;;;;;;4.70;4.10;;;13.80;1.00;;;;;;5001513;28;20199;-49
2022/06/08 00:12:09;;;;;;;5.90;5.00;;;13.80;1.00;;;;;;4992993;28;20227;-53
2022/06/08 00:14:36;;;;;;;5.63;5.00;;;13.70;1.00;;;;;;5001576;28;20295;-52
2022/06/08 00:17:02;;;;;;;8.60;5.37;;;13.40;1.00;;;;;;5002072;28;20981;-52
2022/06/08 00:19:27;;;;;;;10.70;5.50;;;13.00;1.00;;;;;;4999793;28;20427;-59
2022/06/08 00:21:53;;;;;;;9.03;5.97;;;12.70;1.00;;;;;;5000506;28;21042;-53
2022/06/08 00:24:19;;;;;;;10.53;6.00;;;12.40;1.00;;;;;;5000659;28;20208;-53
2022/06/08 00:26:45;;;;;;;10.83;6.20;;;12.20;1.00;;;;;;5003479;28;20191;-53
2022/06/08 00:29:11;;;;;;;14.23;7.67;;;12.00;1.00;;;;;;4994310;28;20189;-53
2022/06/08 00:31:37;;;;;;;8.33;6.50;;;11.90;1.00;;;;;;4997904;28;20490;-53
2022/06/08 00:34:03;;;;;;;17.27;6.80;;;11.70;1.00;;;;;;5001441;28;20200;-54
2022/06/08 00:36:29;;;;;;;8.87;6.33;;;11.70;88.20;;;;;;4992070;28;20452;-53
2022/06/08 00:38:55;;;;;;;9.50;6.33;;;11.60;99.90;;;;;;4990487;28;20196;-54
2022/06/08 00:41:32;;;;;;;10.30;6.90;;;11.50;99.90;;;;;;4991906;28;20257;-53
2022/06/08 00:43:59;;;;;;;13.93;6.73;;;11.50;99.90;;;;;;5002123;28;20933;-54
2022/06/08 00:46:25;;;;;;;10.50;6.10;;;11.40;1.00;;;;;;4997935;28;20420;-53
2022/06/08 00:48:56;;;;;;;10.93;6.80;;;11.40;1.00;;;;;;5001248;28;20447;-54
2022/06/08 00:51:22;;;;;;;9.60;6.40;;;11.30;1.00;;;;;;4997766;28;20986;-53
2022/06/08 00:53:59;;;;;;;11.43;7.27;;;11.30;1.00;;;;;;5001642;28;20443;-53
2022/06/08 00:56:31;;;;;;;13.10;6.67;;;11.20;99.90;;;;;;5002060;28;20206;-53
2022/06/08 00:58:58;;;;;;;8.90;7.10;;;11.20;99.90;;;;;;4997946;28;20417;-53
2022/06/08 01:01:24;;;;;;;14.57;8.17;;;11.20;99.90;;;;;;4996819;28;20411;-54
2022/06/08 01:03:50;;;;;;;12.90;7.60;;;11.10;99.90;;;;;;4997731;28;20502;-53
2022/06/08 01:06:24;;;;;;;19.70;8.70;;;11.10;1.00;;;;;;4998409;28;20938;-53
2022/06/08 01:08:53;;;;;;;11.20;7.07;;;11.10;99.90;;;;;;5003984;28;20275;-54
2022/06/08 01:11:44;;;;;;;13.13;8.50;;;11.10;99.90;;;;;;4994712;28;20801;-54
2022/06/08 01:14:13;;;;;;;9.43;7.10;;;11.00;99.90;;;;;;4995946;28;20921;-53
2022/06/08 01:16:48;;;;;;;14.27;8.23;;;11.00;99.90;;;;;;4995739;28;20427;-54
2022/06/08 01:19:14;;;;;;;15.40;8.67;;;10.90;1.00;;;;;;5000122;28;20426;-54
2022/06/08 01:21:39;;;;;;;12.30;7.60;;;10.90;53.10;;;;;;4961154;28;1147302;-54
2022/06/08 01:24:08;;;;;;;12.07;8.77;;;10.80;37.30;;;;;;4993937;28;20685;-54
2022/06/08 01:26:55;;;;;;;10.83;8.50;;;10.80;90.60;;;;;;4997736;28;20657;-54
2022/06/08 01:29:34;;;;;;;14.07;8.20;;;10.70;70.40;;;;;;4999957;28;20423;-54
2022/06/08 01:32:11;;;;;;;17.00;8.80;;;10.70;1.00;;;;;;5000921;28;20418;-54
2022/06/08 01:34:46;;;;;;;12.80;8.47;;;10.60;88.00;;;;;;4995659;28;20493;-53
2022/06/08 01:37:24;;;;;;;14.70;9.07;;;10.60;99.90;;;;;;5002550;28;20418;-53
2022/06/08 01:40:10;;;;;;;15.00;10.10;;;10.50;1.00;;;;;;4995775;28;20444;-53
2022/06/08 01:42:51;;;;;;;15.13;8.40;;;10.50;99.90;;;;;;4990949;28;20451;-54
2022/06/08 01:45:43;;;;;;;18.10;9.23;;;10.50;99.90;;;;;;4987428;28;20508;-54
2022/06/08 01:48:44;;;;;;;12.90;9.40;;;10.50;1.00;;;;;;4995410;28;20466;-55
2022/06/08 01:51:27;;;;;;;17.90;9.70;;;10.50;99.90;;;;;;4995054;28;20438;-54
2022/06/08 01:53:58;;;;;;;12.63;9.33;;;10.50;1.00;;;;;;4992332;28;20439;-54
2022/06/08 01:56:24;;;;;;;15.17;10.10;;;10.50;99.90;;;;;;4991679;28;20929;-54
2022/06/08 01:59:28;;;;;;;12.53;9.50;;;10.50;81.20;;;;;;5001374;28;20426;-54
2022/06/08 02:02:18;;;;;;;18.20;9.80;;;10.40;1.00;;;;;;4978358;28;20849;-54
2022/06/08 02:04:56;;;;;;;13.00;10.23;;;10.40;1.00;;;;;;4995896;28;20463;-54
2022/06/08 02:07:39;;;;;;;18.43;9.90;;;10.40;99.90;;;;;;4997715;28;20453;-54
2022/06/08 02:10:37;;;;;;;12.80;8.87;;;10.40;1.00;;;;;;4996135;28;21160;-54
2022/06/08 02:13:16;;;;;;;16.20;10.20;;;10.30;99.90;;;;;;4975168;28;20450;-54
2022/06/08 02:15:46;;;;;;;15.27;10.00;;;10.20;99.90;;;;;;4986129;28;20778;-54
2022/06/08 02:18:56;;;;;;;13.93;10.23;;;10.20;1.00;;;;;;4996657;28;20427;-54
2022/06/08 02:21:35;;;;;;;14.37;12.27;;;10.20;1.00;;;;;;4960022;28;20594;-54
2022/06/08 02:24:09;;;;;;;17.23;10.17;;;10.10;73.10;;;;;;4950184;28;20554;-55
2022/06/08 02:27:01;;;;;;;19.37;10.93;;;10.10;1.00;;;;;;4964647;28;20571;-54
2022/06/08 02:29:52;;;;;;;19.87;11.73;;;10.10;99.90;;;;;;4981386;28;20452;-54
2022/06/08 02:35:29;;;;;;;17.53;11.03;;;10.10;1.00;;;;;;4981200;28;20441;-54
2022/06/08 02:38:02;;;;;;;15.00;11.60;;;10.00;99.90;;;;;;4978056;28;20419;-54
2022/06/08 02:40:32;;;;;;;21.83;11.20;;;10.00;10.70;;;;;;4985692;28;20490;-54
2022/06/08 02:43:05;;;;;;;20.93;11.00;;;10.00;1.00;;;;;;4983778;28;20519;-54
2022/06/08 02:45:37;;;;;;;19.53;11.60;;;9.90;99.90;;;;;;4977125;28;20447;-55
2022/06/08 02:48:09;;;;;;;16.73;10.60;;;9.90;1.00;;;;;;4977161;28;20470;-55
2022/06/08 02:50:38;;;;;;;17.83;12.07;;;9.90;1.00;;;;;;4963401;28;20455;-54
2022/06/08 02:53:28;;;;;;;16.30;12.30;;;9.80;99.90;;;;;;4982813;28;20497;-54
2022/06/08 02:56:13;;;;;;;18.57;11.83;;;9.80;1.00;;;;;;4950650;28;20538;-54
2022/06/08 02:59:02;;;;;;;17.50;11.73;;;9.80;99.90;;;;;;4980371;28;20823;-54
2022/06/08 03:01:44;;;;;;;17.70;12.40;;;9.80;99.90;;;;;;4973732;28;20455;-54
2022/06/08 03:04:28;;;;;;;19.83;12.57;;;9.80;99.90;;;;;;4974027;28;20463;-54
2022/06/08 03:06:58;;;;;;;19.37;12.60;;;9.80;99.90;;;;;;4980102;28;20423;-54
2022/06/08 03:09:25;;;;;;;20.10;13.77;;;9.80;99.90;;;;;;4979714;28;20497;-55
2022/06/08 03:12:00;;;;;;;22.10;13.03;;;9.90;99.90;;;;;;4976883;28;20439;-54
2022/06/08 03:14:28;;;;;;;17.53;11.70;;;9.90;99.90;;;;;;4979843;28;20461;-53
2022/06/08 03:17:01;;;;;;;18.77;12.37;;;9.90;99.90;;;;;;4976889;28;20769;-54
2022/06/08 03:19:30;;;;;;;28.40;11.70;;;9.90;99.90;;;;;;4974094;28;20444;-55
2022/06/08 03:21:56;;;;;;;19.67;11.90;;;9.80;99.90;;;;;;4990936;28;20500;-54
2022/06/08 03:24:23;;;;;;;18.53;12.63;;;9.90;99.90;;;;;;4992446;28;20567;-55
2022/06/08 03:26:56;;;;;;;17.47;12.40;;;9.90;99.90;;;;;;4999404;28;20533;-54
2022/06/08 03:29:24;;;;;;;17.30;10.93;;;9.90;99.90;;;;;;5005776;28;20435;-55
2022/06/08 03:31:50;;;;;;;15.83;11.07;;;9.90;99.90;;;;;;4998805;28;21264;-54
2022/06/08 03:34:16;;;;;;;15.37;11.50;;;9.90;99.90;;;;;;5001638;28;20545;-54
2022/06/08 03:36:42;;;;;;;19.90;11.77;;;9.90;99.90;;;;;;4997228;28;20442;-55
2022/06/08 03:39:08;;;;;;;14.60;11.10;;;9.90;99.90;;;;;;5000112;28;20448;-54
2022/06/08 03:41:35;;;;;;;16.80;12.60;;;9.90;99.90;;;;;;5001227;28;20600;-54
2022/06/08 03:44:01;;;;;;;21.60;12.97;;;9.90;99.90;;;;;;5004243;28;20562;-55
2022/06/08 03:46:28;;;;;;;17.30;12.07;;;10.00;99.90;;;;;;5005191;28;20427;-54
2022/06/08 03:48:58;;;;;;;18.40;12.13;;;10.00;99.90;;;;;;4992961;28;20441;-53
2022/06/08 03:51:24;;;;;;;27.30;13.10;;;10.00;99.90;;;;;;4997296;28;20581;-53
2022/06/08 03:54:05;;;;;;;19.30;12.97;;;10.10;99.90;;;;;;5004902;28;20427;-54
2022/06/08 03:56:33;;;;;;;21.90;12.20;;;10.20;99.90;;;;;;5005794;28;20186;-54
2022/06/08 03:58:59;;;;;;;21.80;13.50;;;10.20;99.90;;;;;;5000407;28;20422;-55
2022/06/08 04:01:25;;;;;;;17.63;12.70;;;10.30;99.90;;;;;;4997009;28;20449;-54
2022/06/08 04:03:52;;;;;;;20.00;12.30;;;10.30;99.90;;;;;;5003771;28;20952;-54
2022/06/08 04:06:19;;;;;;;15.03;11.43;;;10.30;99.90;;;;;;4996368;28;20442;-54
2022/06/08 04:08:45;;;;;;;13.83;10.40;;;10.40;99.90;;;;;;5001497;28;20444;-54
2022/06/08 04:11:11;;;;;;;22.73;12.57;;;10.40;99.90;;;;;;5001450;28;20447;-55
2022/06/08 04:13:37;;;;;;;13.90;10.90;;;10.50;99.90;;;;;;4995672;28;20282;-55
2022/06/08 04:16:03;;;;;;;18.90;12.13;;;10.50;99.90;;;;;;4991623;28;20196;-54
2022/06/08 04:18:30;;;;;;;14.00;10.77;;;10.60;99.90;;;;;;4999169;28;20523;-54
2022/06/08 04:20:57;;;;;;;19.20;12.40;;;10.60;99.90;;;;;;4997899;28;20851;-54
2022/06/08 04:23:26;;;;;;;19.33;12.10;;;10.80;99.90;;;;;;4997734;28;20471;-53
2022/06/08 04:25:53;;;;;;;23.27;12.50;;;10.90;99.90;;;;;;4996168;28;20502;-54
2022/06/08 04:28:20;;;;;;;17.87;12.63;;;11.10;99.90;;;;;;4998067;28;20972;-54
2022/06/08 04:30:46;;;;;;;26.90;13.97;;;11.30;99.90;;;;;;5003197;28;20500;-54
2022/06/08 04:33:13;;;;;;;20.37;14.30;;;11.50;99.90;;;;;;4996926;28;20610;-54
2022/06/08 04:35:39;;;;;;;23.17;14.17;;;11.70;99.90;;;;;;4998061;28;20438;-52
2022/06/08 04:38:06;;;;;;;21.77;14.70;;;11.90;99.90;;;;;;5001470;28;20478;-54
2022/06/08 04:40:32;;;;;;;19.50;12.40;;;12.10;99.90;;;;;;4991239;28;20803;-53
2022/06/08 04:42:58;;;;;;;21.60;12.70;;;12.30;31.00;;;;;;4995126;28;20455;-53
2022/06/08 04:45:25;;;;;;;20.80;11.73;;;12.50;99.90;;;;;;4998647;28;20792;-53
2022/06/08 04:47:50;;;;;;;16.27;11.87;;;12.70;1.00;;;;;;5002083;28;20425;-53
2022/06/08 04:50:16;;;;;;;21.63;12.53;;;12.80;99.90;;;;;;4997141;28;20438;-54
2022/06/08 04:52:42;;;;;;;24.57;12.67;;;13.00;1.00;;;;;;5006215;28;20198;-52
2022/06/08 04:55:11;;;;;;;21.33;12.07;;;13.10;99.90;;;;;;4995887;28;20233;-51
2022/06/08 04:57:37;;;;;;;20.53;13.60;;;13.30;1.00;;;;;;5001305;28;20179;-53
2022/06/08 05:00:17;;;;;;;22.90;12.90;;;13.40;99.90;;;;;;4993247;28;20455;-53
2022/06/08 05:02:44;;;;;;;18.60;13.20;;;13.60;1.00;;;;;;4998834;28;20466;-53
2022/06/08 05:05:26;;;;;;;17.73;11.60;;;13.70;1.00;;;;;;4995008;28;20473;-53
2022/06/08 05:07:53;;;;;;;24.37;13.10;;;13.90;99.90;;;;;;4999779;28;20841;-53
2022/06/08 05:10:20;;;;;;;17.33;13.00;;;14.20;99.90;;;;;;5002923;28;20419;-53
2022/06/08 05:12:46;;;;;;;27.03;13.70;;;14.40;1.00;;;;;;4991236;28;20439;-52
2022/06/08 05:15:19;;;;;;;22.30;15.07;;;14.60;1.00;;;;;;4995005;28;20560;-52
2022/06/08 05:17:45;;;;;;;16.40;12.60;;;14.80;99.90;;;;;;5005461;28;20183;-53
2022/06/08 05:20:12;;;;;;;18.30;12.60;;;15.00;99.90;;;;;;4998428;28;20449;-52
2022/06/08 05:22:37;;;;;;;19.83;11.57;;;15.10;82.00;;;;;;4998866;28;20243;-52
2022/06/08 05:25:11;;;;;;;18.50;12.43;;;15.10;1.00;;;;;;4989828;28;20471;-53
2022/06/08 05:27:38;;;;;;;23.17;12.90;;;15.10;1.00;;;;;;5001077;28;20207;-52
2022/06/08 05:30:05;;;;;;;17.13;11.97;;;15.00;1.00;;;;;;5002654;28;20521;-52
2022/06/08 05:32:30;;;;;;;17.37;12.30;;;14.80;1.00;;;;;;4994217;28;20427;-52
2022/06/08 05:34:56;;;;;;;19.10;12.67;;;14.70;1.00;;;;;;4999019;28;21125;-52
2022/06/08 05:37:22;;;;;;;16.73;11.97;;;14.70;1.00;;;;;;5001239;28;20678;-52
2022/06/08 05:39:47;;;;;;;24.33;13.57;;;14.90;1.00;;;;;;5003271;28;20194;-52
2022/06/08 05:42:13;;;;;;;21.40;13.30;;;15.10;1.00;;;;;;4997858;28;20657;-51
2022/06/08 05:44:38;;;;;;;22.03;14.13;;;15.30;1.00;;;;;;4995632;28;20291;-52
2022/06/08 05:47:04;;;;;;;21.93;12.37;;;15.30;1.00;;;;;;4996087;28;20697;-52
2022/06/08 05:49:34;;;;;;;19.00;11.87;;;15.30;1.00;;;;;;4998127;28;20739;-52
2022/06/08 05:52:02;;;;;;;13.00;9.83;;;15.30;1.00;;;;;;5001819;28;20192;-53
2022/06/08 05:54:29;;;;;;;18.30;11.50;;;15.40;1.00;;;;;;4995835;28;20435;-53
2022/06/08 05:56:55;;;;;;;19.30;10.80;;;15.50;1.00;;;;;;4999093;28;21055;-52
2022/06/08 05:59:21;;;;;;;16.90;11.17;;;15.50;1.00;;;;;;5000474;28;20521;-52
2022/06/08 06:01:47;;;;;;;17.70;10.60;;;15.50;1.00;;;;;;4998110;28;20443;-53
2022/06/08 06:04:13;;;;;;;20.00;9.50;;;15.40;99.90;;;;;;5005298;28;20489;-52
2022/06/08 06:06:43;;;;;;;16.13;8.93;;;15.30;99.90;;;;;;4993093;28;20188;-52
2022/06/08 06:09:10;;;;;;;15.57;9.10;;;15.20;99.90;;;;;;4999690;28;20184;-52
2022/06/08 06:11:37;;;;;;;17.47;9.13;;;15.30;99.90;;;;;;4993188;28;20505;-52
2022/06/08 06:14:03;;;;;;;16.10;8.60;;;15.70;99.90;;;;;;4998012;28;20953;-52
2022/06/08 06:16:29;;;;;;;16.77;9.20;;;16.10;99.90;;;;;;4990558;28;20458;-49
2022/06/08 06:18:55;;;;;;;14.50;9.53;;;16.70;99.90;;;;;;4990749;28;20449;-49
2022/06/08 06:21:25;;;;;;;13.17;8.87;;;17.10;99.90;;;;;;4990741;28;21012;-51
2022/06/08 06:23:52;;;;;;;13.00;9.43;;;17.20;99.90;;;;;;4979172;28;20475;-50
2022/06/08 06:26:18;;;;;;;16.60;9.77;;;17.20;99.90;;;;;;4977123;28;20473;-49
2022/06/08 06:28:44;;;;;;;17.47;9.53;;;17.00;99.90;;;;;;4979111;28;20454;-49
2022/06/08 06:31:16;;;;;;;14.70;8.83;;;16.90;99.90;;;;;;4980590;28;20247;-49
2022/06/08 06:33:42;;;;;;;15.43;10.07;;;16.80;99.90;;;;;;4980432;28;20624;-49
2022/06/08 06:36:07;;;;;;;13.73;10.07;;;16.50;99.90;;;;;;4979417;28;20941;-49
2022/06/08 06:38:34;;;;;;;16.40;8.80;;;16.30;99.90;;;;;;4981991;28;20196;-49
2022/06/08 06:40:59;;;;;;;15.43;9.60;;;16.20;99.90;;;;;;4979149;28;20195;-49
2022/06/08 06:43:25;;;;;;;15.47;8.77;;;16.00;99.90;;;;;;4982766;28;20538;-49
2022/06/08 06:45:51;;;;;;;16.50;8.90;;;15.90;99.90;;;;;;4979385;28;20683;-49
2022/06/08 06:48:16;;;;;;;16.57;9.93;;;15.90;99.90;;;;;;4981826;28;20202;-49
2022/06/08 06:50:42;;;;;;;13.17;8.90;;;15.90;99.90;;;;;;4983099;28;20207;-49
2022/06/08 06:53:09;;;;;;;13.43;9.90;;;15.90;99.90;;;;;;4983546;28;20192;-49
2022/06/08 06:55:35;;;;;;;18.97;8.70;;;16.00;99.90;;;;;;4984700;28;20196;-49
2022/06/08 06:58:00;;;;;;;12.23;9.43;;;16.00;99.90;;;;;;4985683;28;20439;-49
2022/06/08 07:00:26;;;;;;;12.80;9.37;;;16.10;99.90;;;;;;4985132;28;20303;-49
2022/06/08 07:02:53;;;;;;;17.40;9.50;;;16.30;99.90;;;;;;4983931;28;20298;-50
2022/06/08 07:05:24;;;;;;;14.27;9.90;;;16.40;99.90;;;;;;4984172;28;20446;-50
2022/06/08 07:07:50;;;;;;;15.33;9.07;;;16.60;99.90;;;;;;4981503;28;20541;-49
2022/06/08 07:10:17;;;;;;;19.50;10.40;;;16.80;99.90;;;;;;4983010;28;20447;-49
2022/06/08 07:12:43;;;;;;;13.97;9.80;;;16.90;99.90;;;;;;4985017;28;20227;-49
2022/06/08 07:15:15;;;;;;;10.77;9.27;;;16.90;99.90;;;;;;4982741;28;20449;-50
2022/06/08 07:17:41;;;;;;;18.40;9.53;;;16.80;99.90;;;;;;4986678;28;20750;-49
2022/06/08 07:20:08;;;;;;;22.33;11.00;;;16.70;99.90;;;;;;4983460;28;20521;-49
2022/06/08 07:22:34;;;;;;;19.40;9.47;;;16.70;99.90;;;;;;4981741;28;20232;-49
2022/06/08 07:24:59;;;;;;;24.53;10.20;;;16.70;99.90;;;;;;4982907;28;20530;-49
2022/06/08 07:27:25;;;;;;;16.67;9.63;;;16.80;99.90;;;;;;4982246;28;20201;-50
2022/06/08 07:29:51;;;;;;;16.53;9.03;;;17.10;99.90;;;;;;4983988;28;20246;-50
2022/06/08 07:32:16;;;;;;;20.43;9.60;;;17.10;99.90;;;;;;4983222;28;20192;-50
2022/06/08 07:34:42;;;;;;;13.97;9.60;;;17.20;99.90;;;;;;4984146;28;21131;-49
2022/06/08 07:37:08;;;;;;;12.90;8.30;;;17.20;99.90;;;;;;4983172;28;20590;-49
2022/06/08 07:39:34;;;;;;;12.50;9.93;;;17.00;99.90;;;;;;4983521;28;20192;-50
2022/06/08 07:41:59;;;;;;;18.03;9.00;;;17.00;99.90;;;;;;4981639;28;20196;-49
2022/06/08 07:44:25;;;;;;;16.77;9.27;;;16.90;99.90;;;;;;4983605;28;20208;-49
2022/06/08 07:46:51;;;;;;;11.33;9.03;;;16.80;99.90;;;;;;4982169;28;20189;-48
2022/06/08 07:52:05;;;;;;;14.20;9.53;;;16.80;99.90;;;;;;4965532;28;20250;-49
2022/06/08 07:54:31;;;;;;;14.20;9.60;;;16.80;99.90;;;;;;4984231;28;20517;-49
2022/06/08 07:56:59;;;;;;;14.30;9.87;;;17.00;99.90;;;;;;4980405;28;20526;-49
2022/06/08 07:59:28;;;;;;;17.77;10.27;;;17.10;99.90;;;;;;4982169;28;20438;-49
2022/06/08 08:01:54;;;;;;;14.13;9.33;;;17.30;99.90;;;;;;4981474;28;20459;-49
2022/06/08 08:04:19;;;;;;;12.90;8.60;;;17.40;99.90;;;;;;4982067;28;20498;-49
2022/06/08 08:06:45;;;;;;;12.73;8.80;;;17.40;99.90;;;;;;4982686;28;20192;-49
2022/06/08 08:09:17;;;;;;;13.73;9.00;;;17.40;99.90;;;;;;4983397;28;20901;-48
2022/06/08 08:11:47;;;;;;;12.77;8.67;;;17.50;99.90;;;;;;4982577;28;20235;-48
2022/06/08 08:14:13;;;;;;;15.53;9.23;;;17.70;99.90;;;;;;4980786;28;20450;-48
2022/06/08 08:16:40;;;;;;;10.00;8.23;;;18.10;99.90;;;;;;4982684;28;20446;-49
2022/06/08 08:19:06;;;;;;;16.60;9.27;;;18.50;99.90;;;;;;4983833;28;20435;-48
2022/06/08 08:21:32;;;;;;;12.77;8.63;;;19.10;99.90;;;;;;4982496;28;20485;-49
2022/06/08 08:23:59;;;;;;;11.07;8.40;;;19.60;99.90;;;;;;4981009;28;20241;-49
2022/06/08 08:26:27;;;;;;;15.37;9.00;;;20.00;99.90;;;;;;4980033;28;20299;-49
2022/06/08 08:28:53;;;;;;;11.80;8.10;;;20.00;99.90;;;;;;4982256;28;20452;-49
2022/06/08 08:31:19;;;;;;;11.10;8.10;;;20.10;99.90;;;;;;4982372;28;20502;-50
2022/06/08 08:33:45;;;;;;;15.57;9.27;;;20.40;99.90;;;;;;4980863;28;20451;-49
2022/06/08 08:36:11;;;;;;;11.13;8.10;;;20.50;99.90;;;;;;4980134;28;20198;-49
2022/06/08 08:38:37;;;;;;;27.63;10.40;;;20.70;99.90;;;;;;4983153;28;20212;-49
2022/06/08 08:41:04;;;;;;;11.90;7.87;;;20.90;99.90;;;;;;4982592;28;20454;-49
2022/06/08 08:43:37;;;;;;;11.13;8.57;;;21.20;99.90;;;;;;4982876;28;21118;-49
2022/06/08 08:46:06;;;;;;;15.27;8.30;;;21.50;99.90;;;;;;4978422;28;20439;-49
2022/06/08 08:48:51;;;;;;;13.10;8.70;;;22.10;99.90;;;;;;4981958;28;20448;-49
2022/06/08 08:51:59;;;;;;;10.87;8.40;;;22.60;99.90;;;;;;4988949;28;20441;-50
2022/06/08 08:54:35;;;;;;;10.60;8.90;;;23.30;99.90;;;;;;4974314;28;20454;-49
2022/06/08 08:57:15;;;;;;;13.50;9.20;;;23.80;99.90;;;;;;4989353;28;20442;-49
2022/06/08 08:59:44;;;;;;;11.07;8.20;;;24.00;99.90;;;;;;4981518;28;20497;-49
2022/06/08 09:03:14;;;;;;;10.90;8.87;;;24.30;99.90;;;;;;4991320;28;20446;-50
2022/06/08 09:05:02;;;;;;;10.77;8.80;;;24.50;99.90;;;;;;4987061;28;20475;-50
2022/06/08 09:07:29;;;;;;;17.13;9.40;;;24.10;99.90;;;;;;4984250;28;20421;-49
2022/06/08 09:09:55;;;;;;;11.70;8.23;;;23.70;99.90;;;;;;4992263;28;20440;-50
2022/06/08 09:12:21;;;;;;;8.33;6.60;;;23.80;99.90;;;;;;4998320;28;20445;-50
2022/06/08 09:15:00;;;;;;;13.00;7.40;;;24.10;99.90;;;;;;4992360;28;20451;-49
2022/06/08 09:17:39;;;;;;;10.93;8.10;;;24.20;99.90;;;;;;4988151;28;20771;-49
2022/06/08 09:20:33;;;;;;;11.13;8.30;;;24.60;99.90;;;;;;4999170;28;21111;-49
2022/06/08 09:23:22;;;;;;;11.50;8.57;;;24.70;99.90;;;;;;4992169;28;20493;-49
2022/06/08 09:26:05;;;;;;;11.00;8.60;;;24.60;99.90;;;;;;4987372;28;20463;-50
2022/06/08 09:28:32;;;;;;;14.00;9.13;;;24.90;99.90;;;;;;4987020;28;20925;-49
2022/06/08 09:30:59;;;;;;;13.27;9.67;;;25.00;99.90;;;;;;4988611;28;20514;-49
2022/06/08 09:33:32;;;;;;;20.17;8.27;;;25.40;99.90;;;;;;4993456;28;20435;-49
2022/06/08 09:36:01;;;;;;;11.20;8.60;;;25.70;99.90;;;;;;4998550;28;20450;-50
2022/06/08 09:38:32;;;;;;;11.10;8.73;;;26.00;99.90;;;;;;4996399;28;20443;-49
2022/06/08 09:41:20;;;;;;;9.43;8.00;;;25.70;99.90;;;;;;4991929;28;20446;-49
2022/06/08 09:43:57;;;;;;;9.17;8.10;;;25.80;99.90;;;;;;4994819;28;20475;-50
2022/06/08 09:53:04;;;;;;;14.93;9.50;;;25.70;99.90;;;;;;4986602;28;20501;-49
2022/06/08 09:55:44;;;;;;;12.57;10.03;;;25.40;99.90;;;;;;4993056;28;20427;-49
2022/06/08 09:58:47;;;;;;;11.70;10.00;;;25.60;99.90;;;;;;4996289;28;20490;-49
2022/06/08 10:01:31;;;;;;;14.47;11.57;;;25.60;99.90;;;;;;4996075;28;21109;-49
2022/06/08 10:04:10;;;;;;;12.93;9.07;;;25.30;99.90;;;;;;4984202;28;20460;-49
2022/06/08 10:06:45;;;;;;;11.73;9.77;;;24.80;99.90;;;;;;5000048;28;20440;-49
2022/06/08 10:09:22;;;;;;;13.23;10.67;;;24.80;99.90;;;;;;4990701;28;20945;-49
2022/06/08 10:12:23;;;;;;;15.40;10.60;;;24.70;99.90;;;;;;4997018;28;20522;-49
2022/06/08 10:14:55;;;;;;;12.70;10.10;;;23.90;99.90;;;;;;4990521;28;20609;-50
2022/06/08 10:17:30;;;;;;;16.43;10.60;;;23.10;99.90;;;;;;4986823;28;21016;-49
2022/06/08 10:19:56;;;;;;;14.30;10.80;;;22.70;99.90;;;;;;4991068;28;21343;-49
2022/06/08 10:22:27;;;;;;;14.10;10.80;;;22.50;99.90;;;;;;4992183;28;20487;-49
2022/06/08 10:25:00;;;;;;;12.60;11.03;;;22.40;99.90;;;;;;4992102;28;20236;-49
2022/06/08 10:27:32;;;;;;;14.53;11.97;;;22.60;99.90;;;;;;4993450;28;20435;-49
2022/06/08 10:30:26;;;;;;;13.47;10.73;;;23.20;99.90;;;;;;4998966;28;21008;-49
2022/06/08 10:33:15;;;;;;;13.23;10.90;;;24.30;99.90;;;;;;4993881;28;21132;-49
2022/06/08 10:35:43;;;;;;;20.10;11.30;;;25.40;99.90;;;;;;4995611;28;20466;-49
2022/06/08 10:38:33;;;;;;;13.33;10.93;;;26.10;99.90;;;;;;4999449;28;20442;-49
2022/06/08 10:44:51;;;;;;;11.95;9.80;;;26.80;99.90;;;;;;4946938;28;20980;-54
2022/06/08 10:47:31;;;;;;;10.73;9.30;;;27.00;99.90;;;;;;4948572;28;20306;-53
2022/06/08 10:50:00;;;;;;;12.30;10.00;;;27.40;99.90;;;;;;4980200;28;20445;-53
2022/06/08 10:52:38;;;;;;;15.23;10.40;;;27.50;99.90;;;;;;4997270;28;20453;-51
2022/06/08 10:55:19;;;;;;;10.17;8.90;;;27.40;99.90;;;;;;4994613;28;20807;-52
2022/06/08 10:57:50;;;;;;;11.97;9.83;;;27.10;99.90;;;;;;4990013;28;20509;-54
2022/06/08 11:00:19;;;;;;;14.73;10.87;;;26.60;99.90;;;;;;4993348;28;20430;-52
2022/06/08 11:03:01;;;;;;;15.50;9.40;;;26.40;99.90;;;;;;4994971;28;20446;-54
2022/06/08 11:05:47;;;;;;;14.00;10.30;;;26.40;99.90;;;;;;4993410;28;20448;-51
2022/06/08 11:08:17;;;;;;;9.90;8.90;;;26.90;99.90;;;;;;4990686;28;20439;-51
2022/06/08 11:10:52;;;;;;;8.40;7.50;;;27.20;99.90;;;;;;4995922;28;20523;-51
2022/06/08 11:13:30;;;;;;;11.17;7.17;;;27.50;99.90;;;;;;4993833;28;20514;-51
2022/06/08 11:16:16;;;;;;;8.97;8.07;;;27.40;99.90;;;;;;4996250;28;20566;-50
2022/06/08 11:18:45;;;;;;;12.50;8.77;;;27.00;99.90;;;;;;4995663;28;20469;-50
2022/06/08 11:21:13;;;;;;;11.53;8.13;;;26.80;99.90;;;;;;4989898;28;20483;-50
2022/06/08 11:23:42;;;;;;;9.60;7.97;;;26.30;99.90;;;;;;4991559;28;20537;-50
2022/06/08 11:26:19;;;;;;;11.53;8.07;;;25.60;99.90;;;;;;4993260;28;20444;-51
2022/06/08 11:28:48;;;;;;;8.83;7.83;;;24.90;99.90;;;;;;4993642;28;20445;-51
2022/06/08 11:31:26;;;;;;;18.63;8.53;;;24.50;99.90;;;;;;4999606;28;20438;-51
2022/06/08 11:34:13;;;;;;;9.03;8.20;;;24.20;99.90;;;;;;4995049;28;20441;-53
2022/06/08 11:37:00;;;;;;;13.97;8.40;;;24.10;99.90;;;;;;5002975;28;20428;-52
2022/06/08 11:39:55;;;;;;;9.70;7.33;;;24.10;99.90;;;;;;4993634;28;20812;-51
2022/06/08 11:42:29;;;;;;;8.60;7.70;;;24.20;99.90;;;;;;4996356;28;20486;-50
2022/06/08 11:45:07;;;;;;;9.90;7.07;;;24.30;99.90;;;;;;4997681;28;20466;-51
2022/06/08 11:47:48;;;;;;;8.07;6.70;;;24.40;99.90;;;;;;4994240;28;20844;-50
2022/06/08 11:50:16;;;;;;;8.40;7.00;;;24.90;99.90;;;;;;4992979;28;20446;-49
2022/06/08 11:52:45;;;;;;;10.40;8.20;;;25.10;99.90;;;;;;4996580;28;20436;-49
2022/06/08 11:55:23;;;;;;;10.27;7.53;;;25.40;99.90;;;;;;5001929;28;21266;-48
2022/06/08 11:57:53;;;;;;;9.87;8.03;;;25.50;99.90;;;;;;4993018;28;20450;-51
2022/06/08 12:00:26;;;;;;;9.33;8.20;;;25.40;99.90;;;;;;4992849;28;20450;-49
2022/06/08 12:02:57;;;;;;;10.33;8.70;;;25.40;99.90;;;;;;4996616;28;20455;-49
2022/06/08 12:05:27;;;;;;;10.57;9.47;;;25.30;99.90;;;;;;4983948;28;20512;-49
2022/06/08 12:08:14;;;;;;;11.17;8.90;;;25.20;99.90;;;;;;4989342;28;20436;-49
2022/06/08 12:10:40;;;;;;;10.53;8.23;;;25.00;99.90;;;;;;4985576;28;20486;-49
2022/06/08 12:13:21;;;;;;;11.83;8.83;;;24.70;99.90;;;;;;4990670;28;20792;-49
2022/06/08 12:15:51;;;;;;;9.90;9.00;;;24.80;99.90;;;;;;4983638;28;20443;-49
2022/06/08 12:18:28;;;;;;;13.00;10.50;;;25.40;99.90;;;;;;4999090;28;21019;-50
2022/06/08 12:21:28;;;;;;;10.67;9.63;;;26.10;99.90;;;;;;4991957;28;20525;-49
2022/06/08 12:23:59;;;;;;;14.40;10.53;;;26.50;99.90;;;;;;4978759;28;20482;-49
2022/06/08 12:26:35;;;;;;;9.93;8.93;;;26.70;99.90;;;;;;5002824;28;20443;-49
2022/06/08 12:29:17;;;;;;;11.07;9.73;;;26.60;99.90;;;;;;4985466;28;20437;-49
2022/06/08 12:31:43;;;;;;;11.63;10.00;;;26.30;99.90;;;;;;4996514;28;20979;-50
2022/06/08 12:34:35;;;;;;;10.67;9.57;;;25.80;99.90;;;;;;4998202;28;20435;-49
2022/06/08 12:37:33;;;;;;;8.63;7.77;;;25.40;99.90;;;;;;4999145;28;20830;-49
2022/06/08 12:40:27;;;;;;;10.90;9.40;;;26.10;99.90;;;;;;5004508;28;20435;-49
2022/06/08 12:42:52;;;;;;;12.23;9.20;;;26.50;99.90;;;;;;5002108;28;20422;-49
2022/06/08 12:45:34;;;;;;;10.57;9.47;;;26.20;99.90;;;;;;4994028;28;20486;-49
2022/06/08 12:48:24;;;;;;;11.23;9.03;;;25.90;99.90;;;;;;5003208;28;20184;-49
2022/06/08 12:50:53;;;;;;;9.57;8.57;;;25.40;99.90;;;;;;4993870;28;20442;-49
2022/06/08 12:53:19;;;;;;;9.30;8.40;;;25.10;99.90;;;;;;4996061;28;20463;-49
2022/06/08 12:55:46;;;;;;;10.43;9.33;;;24.70;99.90;;;;;;5002463;28;20431;-49
2022/06/08 12:58:12;;;;;;;13.60;10.23;;;24.40;99.90;;;;;;5005131;28;20198;-49
2022/06/08 13:00:45;;;;;;;10.60;9.60;;;24.00;99.90;;;;;;4999128;28;20934;-49
2022/06/08 13:03:24;;;;;;;10.33;8.50;;;23.80;99.90;;;;;;4995149;28;20435;-49
2022/06/08 13:05:51;;;;;;;9.17;7.97;;;23.90;99.90;;;;;;4982806;28;20819;-49
2022/06/08 13:08:21;;;;;;;11.00;8.77;;;24.00;99.90;;;;;;4998787;28;20469;-48
2022/06/08 13:10:50;;;;;;;11.47;8.43;;;23.80;99.90;;;;;;4999566;28;20500;-49
2022/06/08 13:13:20;;;;;;;9.70;8.73;;;23.80;99.90;;;;;;4992809;28;20435;-49
2022/06/08 13:15:46;;;;;;;15.40;9.47;;;24.00;99.90;;;;;;5000099;28;20439;-49
2022/06/08 13:18:20;;;;;;;9.57;8.50;;;25.10;99.90;;;;;;4999633;28;20462;-49